Aviation Digital Data Service (ADDS)

Output produced by METARs form (1128 UTC 26 April 2015)
found at http://www.aviationweather.gov/adds/metars/
 
KDEC 261126Z 2612/2712 02010KT P6SM BKN100 
     FM261400 03009KT P6SM SKC 
     FM261700 03012G18KT P6SM SCT045 
     FM270000 02005KT P6SM SKC